Desert Springs, Nevada Weather observations

Data are for 10 minute period ending at time listed.
 Day   Time    Ave.   Ave.  Ave.  Vector   Max.   Total    Solar   
  of    of     Air    Rel.  Wind   Wind    Wind  Precip.   Rad.    
Year   Day     Temp.  Hum.  Speed  Dir.    Gust                    
2014   (PST)    F      %     mph   deg.    mph     in.     W/m2    
------------------------------------------------------------------- 
 326   12:00   54.0    47   33.0   277     58.0    4.39     453  
 326   13:00   53.0    45   30.0   273     48.0    4.39     464  
 326   14:00   47.0    72   24.0   291     49.0    4.39     204  
 326   15:00   50.0    50   35.0   283     47.0    4.39     201  
 326   16:00   43.0    75   33.0   300     51.0    4.39     141  
 326   17:00   41.0    60   34.0   288     50.0    4.39      23  
 326   18:00   40.0    65   24.0   290     41.0    4.39       1  
 326   19:00   37.0    70   16.0   290     30.0    4.39       0  
 326   20:00   35.0    75   12.0   296     19.0    4.39       0  
 326   21:00   37.0    71   14.0   310     21.0    4.39       0  
 326   22:00   35.0    70    4.0   353     16.0    4.39       0  
 326   23:00   35.0    69    6.0   320      9.0    4.39       0  
 327    0:00   35.0    67    6.0   334     13.0    4.39       0  
 327    1:00   34.0    67   12.0   328     16.0    4.39       0  
 327    2:00   33.0    71    7.0   325     16.0    4.39       0  
 327    3:00   30.0    79    6.0     7     11.0    4.39       0  
 327    4:00   30.0    80    4.0   262      7.0    4.39       0  
 327    5:00   30.0    79    5.0   238      7.0    4.39       0  
 327    6:00   30.0    76    5.0   226      9.0    4.39       0  
 327    7:00   28.0    76    4.0   284      6.0    4.39       0  
 327    8:00   32.0    71    1.0   146      6.0    4.39      40  
 327    9:00   34.0    67    1.0   291      4.0    4.39     201  
 327   10:00   37.0    62    2.0   283      3.0    4.39     263  
 327   11:00   38.0    62    4.0   133      8.0    4.39     371  

Return to Desert Springs, Nevada graphs page.


Western Regional Climate Center,wrcc@dri.edu